createdAt,value
2018-03-19T00:00:42.343Z,94268.57
2018-03-19T00:03:10.728Z,94270.48
2018-03-19T00:05:39.116Z,94273.58
2018-03-19T00:08:07.557Z,94272.81
2018-03-19T00:10:35.976Z,94281.40
2018-03-19T00:13:04.516Z,94268.14
2018-03-19T00:15:32.986Z,94265.48
2018-03-19T00:18:01.471Z,94259.81
2018-03-19T00:20:29.884Z,94262.55
2018-03-19T00:22:58.451Z,94257.33
2018-03-19T00:25:26.854Z,94255.19
2018-03-19T00:27:55.381Z,94258.08
2018-03-19T00:30:23.848Z,94245.23
2018-03-19T00:32:52.248Z,94242.23
2018-03-19T00:35:20.676Z,94249.02
2018-03-19T00:37:49.143Z,94248.39
2018-03-19T00:40:17.552Z,94251.70
2018-03-19T00:42:45.985Z,94248.30
2018-03-19T00:45:14.455Z,94242.42
2018-03-19T00:47:42.901Z,94246.73
2018-03-19T00:50:11.319Z,94261.48
2018-03-19T00:52:39.703Z,94262.08
2018-03-19T00:55:08.114Z,94249.31
2018-03-19T00:57:36.575Z,94252.15
2018-03-19T01:00:04.987Z,94252.52
2018-03-19T01:02:33.403Z,94245.02
2018-03-19T01:05:02.057Z,94245.27
2018-03-19T01:07:30.464Z,94252.24
2018-03-19T01:09:58.880Z,94252.01
2018-03-19T01:12:27.436Z,94253.83
2018-03-19T01:14:55.853Z,94251.83
2018-03-19T01:17:24.274Z,94241.55
2018-03-19T01:19:52.737Z,94248.44
2018-03-19T01:22:21.133Z,94234.91
2018-03-19T01:24:49.799Z,94228.83
2018-03-19T01:27:18.200Z,94237.30
2018-03-19T01:29:46.676Z,94236.59
2018-03-19T01:32:15.072Z,94236.74
2018-03-19T01:34:43.472Z,94232.05
2018-03-19T01:37:11.928Z,94230.59
2018-03-19T01:39:40.327Z,94235.44
2018-03-19T01:42:08.711Z,94222.95
2018-03-19T01:44:37.190Z,94233.09
2018-03-19T01:47:05.599Z,94217.42
2018-03-19T01:49:34.012Z,94218.96
2018-03-19T01:52:02.628Z,94217.44
2018-03-19T01:54:31.019Z,94213.44
2018-03-19T01:56:59.427Z,94218.63
2018-03-19T01:59:28.001Z,94213.14
2018-03-19T02:01:56.418Z,94214.91
2018-03-19T02:04:24.887Z,94221.64
2018-03-19T02:06:53.321Z,94220.52
2018-03-19T02:09:21.788Z,94222.18
2018-03-19T02:11:50.182Z,94228.17
2018-03-19T02:14:18.723Z,94229.86
2018-03-19T02:16:47.132Z,94230.73
2018-03-19T02:19:15.563Z,94235.86
2018-03-19T02:21:43.952Z,94238.02
2018-03-19T02:24:12.339Z,94236.53
2018-03-19T02:26:40.828Z,94243.08
2018-03-19T02:29:09.235Z,94233.02
2018-03-19T02:31:37.711Z,94226.56
2018-03-19T02:34:06.170Z,94224.09
2018-03-19T02:36:34.564Z,94230.70
2018-03-19T02:39:03.026Z,94230.98
2018-03-19T02:41:31.451Z,94230.69
2018-03-19T02:43:59.873Z,94228.85
2018-03-19T02:46:28.349Z,94227.27
2018-03-19T02:48:56.749Z,94233.13
2018-03-19T02:51:25.173Z,94236.73
2018-03-19T02:53:53.619Z,94234.03
2018-03-19T02:56:22.053Z,94223.72
2018-03-19T02:58:50.444Z,94224.86
2018-03-19T03:01:18.899Z,94229.73
2018-03-19T03:03:47.318Z,94229.66
2018-03-19T03:06:15.774Z,94233.16
2018-03-19T03:08:44.170Z,94231.45
2018-03-19T03:11:12.562Z,94246.19
2018-03-19T03:13:41.232Z,94240.75
2018-03-19T03:16:09.704Z,94241.25
2018-03-19T03:18:38.100Z,94247.85
2018-03-19T03:21:06.514Z,94236.48
2018-03-19T03:23:34.933Z,94238.81
2018-03-19T03:26:03.395Z,94241.44
2018-03-19T03:28:31.788Z,94249.30
2018-03-19T03:31:00.189Z,94247.81
2018-03-19T03:33:28.677Z,94248.92
2018-03-19T03:35:57.073Z,94253.72
2018-03-19T03:38:25.557Z,94254.09
2018-03-19T03:40:53.961Z,94257.20
2018-03-19T03:43:22.360Z,94254.09
2018-03-19T03:45:50.766Z,94246.44
2018-03-19T03:48:19.163Z,94250.05
2018-03-19T03:50:47.691Z,94250.25
2018-03-19T03:53:16.088Z,94251.42
2018-03-19T03:55:44.564Z,94261.10
2018-03-19T03:58:12.966Z,94257.68
2018-03-19T04:00:41.435Z,94260.36
2018-03-19T04:03:09.819Z,94261.83
2018-03-19T04:05:38.268Z,94254.03
2018-03-19T04:08:06.653Z,94244.61
2018-03-19T04:10:35.046Z,94250.41
2018-03-19T04:13:03.456Z,94255.39
2018-03-19T04:15:31.839Z,94247.05
2018-03-19T04:18:00.636Z,94246.53
2018-03-19T04:20:29.055Z,94251.41
2018-03-19T04:22:57.454Z,94258.02
2018-03-19T04:25:25.868Z,94255.01
2018-03-19T04:27:54.322Z,94257.00
2018-03-19T04:30:22.815Z,94258.09
2018-03-19T04:32:51.209Z,94253.85
2018-03-19T04:35:19.614Z,94257.25
2018-03-19T04:37:48.017Z,94260.66
2018-03-19T04:40:16.415Z,94256.22
2018-03-19T04:42:44.863Z,94260.73
2018-03-19T04:45:13.269Z,94256.16
2018-03-19T04:47:41.650Z,94257.88
2018-03-19T04:50:10.042Z,94257.53
2018-03-19T04:52:38.484Z,94254.02
2018-03-19T04:55:07.551Z,94254.41
2018-03-19T04:57:35.946Z,94253.01
2018-03-19T05:00:04.449Z,94258.88
2018-03-19T05:02:32.852Z,94261.02
2018-03-19T05:05:01.232Z,94253.41
2018-03-19T05:07:29.688Z,94255.50
2018-03-19T05:09:58.086Z,94251.42
2018-03-19T05:12:26.497Z,94249.20
2018-03-19T05:14:54.917Z,94264.11
2018-03-19T05:17:23.331Z,94260.05
2018-03-19T05:19:51.791Z,94272.19
2018-03-19T05:22:20.197Z,94263.31
2018-03-19T05:24:48.600Z,94273.32
2018-03-19T05:27:17.004Z,94265.61
2018-03-19T05:29:45.424Z,94266.64
2018-03-19T05:32:13.875Z,94271.16
2018-03-19T05:34:42.327Z,94275.08
2018-03-19T05:37:10.750Z,94268.87
2018-03-19T05:39:39.161Z,94272.91
2018-03-19T05:42:07.548Z,94274.00
2018-03-19T05:44:35.986Z,94274.36
2018-03-19T05:47:04.376Z,94271.05
2018-03-19T05:49:32.828Z,94268.11
2018-03-19T05:52:01.220Z,94271.86
2018-03-19T05:54:29.679Z,94268.03
2018-03-19T05:56:58.088Z,94273.19
2018-03-19T05:59:26.518Z,94278.34
2018-03-19T06:01:54.922Z,94275.86
2018-03-19T06:04:23.310Z,94277.52
2018-03-19T06:06:51.819Z,94288.48
2018-03-19T06:09:20.335Z,94286.58
2018-03-19T06:11:48.743Z,94290.84
2018-03-19T06:14:17.157Z,94294.05
2018-03-19T06:16:45.539Z,94284.80
2018-03-19T06:19:14.942Z,94295.36
2018-03-19T06:21:43.357Z,94300.13
2018-03-19T06:24:11.787Z,94304.78
2018-03-19T06:26:40.348Z,94304.56
2018-03-19T06:29:09.085Z,94308.17
2018-03-19T06:31:37.645Z,94295.17
2018-03-19T06:34:06.091Z,94289.45
2018-03-19T06:36:34.592Z,94295.98
2018-03-19T06:39:03.051Z,94286.81
2018-03-19T06:41:31.489Z,94305.05
2018-03-19T06:44:00.029Z,94294.94
2018-03-19T06:46:28.463Z,94304.72
2018-03-19T06:48:56.872Z,94312.42
2018-03-19T06:51:25.286Z,94313.05
2018-03-19T06:53:53.685Z,94305.57
2018-03-19T06:56:22.170Z,94312.00
2018-03-19T06:58:50.572Z,94310.84
2018-03-19T07:01:18.986Z,94318.39
2018-03-19T07:03:47.477Z,94319.16
2018-03-19T07:06:15.985Z,94321.14
2018-03-19T07:08:44.361Z,94320.50
2018-03-19T07:11:12.760Z,94315.89
2018-03-19T07:13:41.220Z,94310.21
2018-03-19T07:16:09.673Z,94315.63
2018-03-19T07:18:38.111Z,94299.95
2018-03-19T07:21:06.513Z,94310.55
2018-03-19T07:23:35.060Z,94317.38
2018-03-19T07:26:03.485Z,94316.11
2018-03-19T07:28:31.887Z,94314.81
2018-03-19T07:31:00.294Z,94324.38
2018-03-19T07:33:28.703Z,94323.30
2018-03-19T07:35:57.421Z,94310.03
2018-03-19T07:38:25.851Z,94309.67
2018-03-19T07:40:54.309Z,94308.50
2018-03-19T07:43:22.771Z,94310.53
2018-03-19T07:45:51.223Z,94310.61
2018-03-19T07:48:19.651Z,94316.11
2018-03-19T07:50:48.088Z,94312.44
2018-03-19T07:53:16.527Z,94309.22
2018-03-19T07:55:45.013Z,94307.66
2018-03-19T07:58:13.496Z,94309.95
2018-03-19T08:00:41.897Z,94316.95
2018-03-19T08:03:10.431Z,94312.20
2018-03-19T08:05:38.981Z,94321.02
2018-03-19T08:08:07.526Z,94315.75
2018-03-19T08:10:36.031Z,94326.87
2018-03-19T08:13:04.469Z,94331.18
2018-03-19T08:15:32.923Z,94325.02
2018-03-19T08:18:01.329Z,94327.81
2018-03-19T08:20:29.808Z,94330.44
2018-03-19T08:22:58.202Z,94334.59
2018-03-19T08:25:26.633Z,94332.55
2018-03-19T08:27:55.074Z,94333.73
2018-03-19T08:30:23.480Z,94324.41
2018-03-19T08:32:52.064Z,94326.98
2018-03-19T08:35:20.606Z,94333.89
2018-03-19T08:37:48.996Z,94337.73
2018-03-19T08:40:17.388Z,94331.61
2018-03-19T08:42:45.815Z,94339.69
2018-03-19T08:45:14.375Z,94340.52
2018-03-19T08:47:42.872Z,94340.31
2018-03-19T08:50:11.290Z,94346.69
2018-03-19T08:52:39.711Z,94357.08
2018-03-19T08:55:08.116Z,94359.37
2018-03-19T08:57:36.516Z,94349.95
2018-03-19T09:00:05.418Z,94355.58
2018-03-19T09:02:34.183Z,94349.83
2018-03-19T09:05:02.592Z,94353.89
2018-03-19T09:07:30.992Z,94346.48
2018-03-19T09:09:59.396Z,94342.58
2018-03-19T09:12:27.805Z,94353.11
2018-03-19T09:14:56.255Z,94356.00
2018-03-19T09:17:24.716Z,94344.00
2018-03-19T09:19:53.161Z,94348.88
2018-03-19T09:22:21.550Z,94353.07
2018-03-19T09:24:49.936Z,94341.43
2018-03-19T09:27:18.402Z,94352.30
2018-03-19T09:29:46.804Z,94353.48
2018-03-19T09:32:15.224Z,94352.95
2018-03-19T09:34:43.639Z,94350.09
2018-03-19T09:37:12.072Z,94353.20
2018-03-19T09:39:40.546Z,94352.67
2018-03-19T09:42:09.029Z,94359.72
2018-03-19T09:44:37.432Z,94355.16
2018-03-19T09:47:05.862Z,94360.49
2018-03-19T09:49:34.275Z,94370.97
2018-03-19T09:52:02.735Z,94356.43
2018-03-19T09:54:31.152Z,94362.05
2018-03-19T09:56:59.535Z,94363.21
2018-03-19T09:59:27.968Z,94363.81
2018-03-19T10:01:56.367Z,94378.16
2018-03-19T10:04:24.834Z,94380.71
2018-03-19T10:06:53.234Z,94365.84
2018-03-19T10:09:21.637Z,94376.03
2018-03-19T10:11:50.067Z,94386.53
2018-03-19T10:14:18.486Z,94384.84
2018-03-19T10:16:47.251Z,94385.53
2018-03-19T10:19:15.717Z,94389.32
2018-03-19T10:21:44.178Z,94380.85
2018-03-19T10:24:12.577Z,94383.25
2018-03-19T10:26:40.990Z,94378.19
2018-03-19T10:29:09.443Z,94378.98
2018-03-19T10:31:38.008Z,94377.52
2018-03-19T10:34:06.513Z,94377.83
2018-03-19T10:36:34.921Z,94385.36
2018-03-19T10:39:03.356Z,94388.41
2018-03-19T10:41:31.929Z,94387.07
2018-03-19T10:44:00.347Z,94395.79
2018-03-19T10:46:28.779Z,94399.33
2018-03-19T10:48:57.192Z,94394.64
2018-03-19T10:51:25.616Z,94391.38
2018-03-19T10:53:54.099Z,94394.53
2018-03-19T10:56:22.490Z,94388.73
2018-03-19T10:58:50.904Z,94391.55
2018-03-19T11:04:23.619Z,94400.75
2018-03-19T11:06:52.006Z,94392.56
2018-03-19T11:09:26.185Z,94389.78
2018-03-19T11:11:54.675Z,94385.63
2018-03-19T11:14:23.071Z,94392.93
2018-03-19T11:16:51.509Z,94389.69
2018-03-19T11:19:19.904Z,94392.21
2018-03-19T11:21:48.332Z,94395.69
2018-03-19T11:24:16.802Z,94389.30
2018-03-19T11:26:45.252Z,94384.19
2018-03-19T11:29:13.674Z,94380.24
2018-03-19T11:31:42.092Z,94376.16
2018-03-19T11:34:10.556Z,94380.69
2018-03-19T11:36:38.967Z,94381.70
2018-03-19T11:39:07.368Z,94369.59
2018-03-19T11:41:35.797Z,94383.05
2018-03-19T11:44:04.177Z,94375.02
2018-03-19T11:46:32.587Z,94369.48
2018-03-19T11:49:00.995Z,94369.21
2018-03-19T11:51:29.453Z,94382.73
2018-03-19T11:53:57.860Z,94376.79
2018-03-19T11:56:26.280Z,94381.52
2018-03-19T11:58:54.775Z,94369.61
2018-03-19T12:01:23.348Z,94380.45
2018-03-19T12:03:51.812Z,94378.33
2018-03-19T12:06:20.276Z,94384.41
2018-03-19T12:08:48.738Z,94392.42
2018-03-19T12:11:17.147Z,94389.73
2018-03-19T12:13:45.619Z,94387.79
2018-03-19T12:16:14.151Z,94381.36
2018-03-19T12:18:42.712Z,94379.32
2018-03-19T12:21:11.179Z,94389.73
2018-03-19T12:23:39.641Z,94385.31
2018-03-19T12:26:08.105Z,94386.59
2018-03-19T12:28:36.586Z,94369.78
2018-03-19T12:31:05.042Z,94379.36
2018-03-19T12:33:33.550Z,94375.25
2018-03-19T12:36:02.029Z,94368.50
2018-03-19T12:38:30.530Z,94376.11
2018-03-19T12:40:59.024Z,94368.87
2018-03-19T12:49:34.482Z,94367.09
2018-03-19T12:52:02.896Z,94368.33
2018-03-19T13:00:42.182Z,94371.23
2018-03-19T13:03:10.598Z,94369.86
2018-03-19T13:05:39.032Z,94369.66
2018-03-19T13:08:07.514Z,94373.50
2018-03-19T13:10:35.959Z,94370.12
2018-03-19T13:13:04.436Z,94373.85
2018-03-19T13:15:32.868Z,94376.20
2018-03-19T13:18:01.421Z,94367.86
2018-03-19T13:20:30.133Z,94367.22
2018-03-19T13:22:59.507Z,94370.10
2018-03-19T13:25:28.012Z,94373.58
2018-03-19T13:36:24.684Z,94379.29
2018-03-19T13:38:56.672Z,94377.78
2018-03-19T13:41:25.153Z,94373.92
2018-03-19T13:43:53.563Z,94373.55
2018-03-19T13:46:22.079Z,94379.00
2018-03-19T13:48:50.464Z,94385.17
2018-03-19T13:51:18.905Z,94378.13
2018-03-19T13:53:48.381Z,94370.52
2018-03-19T13:56:16.983Z,94370.75
2018-03-19T13:58:45.403Z,94371.89
2018-03-19T14:01:14.170Z,94363.55
2018-03-19T14:03:42.586Z,94366.39
2018-03-19T14:06:11.044Z,94366.58
2018-03-19T14:08:39.534Z,94363.29
2018-03-19T14:11:07.956Z,94376.23
2018-03-19T14:13:36.385Z,94365.23
2018-03-19T14:16:04.821Z,94364.47
2018-03-19T14:18:33.422Z,94372.48
2018-03-19T14:21:01.882Z,94361.71
2018-03-19T14:23:30.481Z,94359.73
2018-03-19T14:25:58.931Z,94359.40
2018-03-19T14:28:27.367Z,94356.06
2018-03-19T14:30:55.862Z,94357.18
2018-03-19T14:33:24.285Z,94353.30
2018-03-19T14:35:52.684Z,94346.88
2018-03-19T14:38:21.162Z,94348.84
2018-03-19T14:40:49.611Z,94339.45
2018-03-19T14:43:18.091Z,94344.69
2018-03-19T14:45:50.282Z,94344.75
2018-03-19T14:48:19.910Z,94348.44
2018-03-19T14:50:49.233Z,94339.31
2018-03-19T14:55:55.300Z,94350.19
2018-03-19T14:58:28.003Z,94350.77
2018-03-19T15:06:04.316Z,94363.30
2018-03-19T15:08:32.753Z,94363.63
2018-03-19T15:11:01.123Z,94362.16
2018-03-19T15:13:29.606Z,94358.09
2018-03-19T15:15:58.036Z,94356.75
2018-03-19T15:18:26.449Z,94356.09
2018-03-19T15:20:54.825Z,94364.34
2018-03-19T15:23:23.245Z,94360.99
2018-03-19T15:25:52.010Z,94358.92
2018-03-19T15:28:20.435Z,94361.13
2018-03-19T15:30:48.820Z,94353.16
2018-03-19T15:33:17.236Z,94367.50
2018-03-19T15:35:45.619Z,94369.90
2018-03-19T15:38:14.402Z,94362.83
2018-03-19T15:40:42.738Z,94369.58
2018-03-19T15:43:11.127Z,94359.16
2018-03-19T15:45:39.555Z,94366.19
2018-03-19T15:48:07.999Z,94366.33
2018-03-19T15:50:36.554Z,94364.19
2018-03-19T15:53:05.014Z,94366.98
2018-03-19T15:55:33.418Z,94365.16
2018-03-19T15:58:01.833Z,94363.42
2018-03-19T16:00:30.250Z,94360.81
2018-03-19T16:02:58.684Z,94359.70
2018-03-19T16:05:27.069Z,94371.86
2018-03-19T16:07:55.443Z,94363.66
2018-03-19T16:10:23.829Z,94367.16
2018-03-19T16:12:52.240Z,94376.10
2018-03-19T16:15:20.705Z,94369.12
2018-03-19T16:17:49.084Z,94377.13
2018-03-19T16:20:17.572Z,94380.91
2018-03-19T16:22:45.943Z,94378.08
2018-03-19T16:25:14.346Z,94369.57
2018-03-19T16:27:42.738Z,94381.65
2018-03-19T16:30:11.114Z,94387.52
2018-03-19T16:32:39.486Z,94393.48
2018-03-19T16:35:07.925Z,94383.23
2018-03-19T16:37:36.444Z,94396.38
2018-03-19T16:40:04.817Z,94396.69
2018-03-19T16:42:33.218Z,94392.52
2018-03-19T16:45:01.576Z,94391.30
2018-03-19T16:47:29.954Z,94394.13
2018-03-19T16:49:58.694Z,94399.80
2018-03-19T16:52:27.085Z,94397.06
2018-03-19T16:54:55.471Z,94409.21
2018-03-19T16:57:23.847Z,94408.30
2018-03-19T16:59:52.307Z,94414.05
2018-03-19T17:02:20.752Z,94418.20
2018-03-19T17:04:49.128Z,94419.40
2018-03-19T17:07:17.635Z,94421.75
2018-03-19T17:09:45.997Z,94435.30
2018-03-19T17:12:14.365Z,94442.05
2018-03-19T17:14:42.804Z,94439.94
2018-03-19T17:17:11.167Z,94443.31
2018-03-19T17:19:39.531Z,94447.38
2018-03-19T17:22:07.924Z,94434.18
2018-03-19T17:24:36.284Z,94441.44
2018-03-19T17:27:04.641Z,94450.11
2018-03-19T17:29:33.064Z,94448.45
2018-03-19T17:32:01.738Z,94451.30
2018-03-19T17:34:30.151Z,94456.04
2018-03-19T17:36:58.596Z,94455.57
2018-03-19T17:39:26.990Z,94460.17
2018-03-19T17:41:55.429Z,94470.21
2018-03-19T17:44:23.902Z,94471.04
2018-03-19T17:46:52.296Z,94473.74
2018-03-19T17:49:20.702Z,94469.24
2018-03-19T17:51:49.243Z,94470.67
2018-03-19T17:54:17.659Z,94477.25
2018-03-19T17:56:46.067Z,94483.55
2018-03-19T17:59:14.604Z,94485.16
2018-03-19T18:01:42.996Z,94483.78
2018-03-19T18:04:11.392Z,94495.42
2018-03-19T18:06:39.796Z,94486.20
2018-03-19T18:09:08.285Z,94493.55
2018-03-19T18:11:36.721Z,94493.35
2018-03-19T18:14:05.192Z,94496.42
2018-03-19T18:16:33.689Z,94506.88
2018-03-19T18:19:02.101Z,94510.19
2018-03-19T18:21:30.573Z,94507.17
2018-03-19T18:23:59.037Z,94501.59
2018-03-19T18:26:27.505Z,94514.97
2018-03-19T18:28:55.910Z,94511.59
2018-03-19T18:31:24.321Z,94520.55
2018-03-19T18:33:52.717Z,94518.38
2018-03-19T18:36:21.167Z,94522.48
2018-03-19T18:38:49.633Z,94525.16
2018-03-19T18:41:18.044Z,94534.34
2018-03-19T18:43:46.436Z,94527.67
2018-03-19T18:46:14.824Z,94530.53
2018-03-19T18:48:43.307Z,94535.53
2018-03-19T18:51:11.696Z,94537.02
2018-03-19T18:53:40.247Z,94541.66
2018-03-19T18:56:08.700Z,94548.06
2018-03-19T18:58:37.204Z,94552.55
2018-03-19T19:01:05.618Z,94548.45
2018-03-19T19:03:34.032Z,94548.91
2018-03-19T19:06:02.582Z,94549.57
2018-03-19T19:08:30.984Z,94554.17
2018-03-19T19:10:59.384Z,94562.38
2018-03-19T19:13:28.079Z,94562.92
2018-03-19T19:15:56.580Z,94556.47
2018-03-19T19:18:25.076Z,94558.02
2018-03-19T19:20:53.667Z,94555.30
2018-03-19T19:23:22.081Z,94564.27
2018-03-19T19:25:50.483Z,94565.42
2018-03-19T19:28:18.906Z,94566.06
2018-03-19T19:30:48.047Z,94562.09
2018-03-19T19:33:16.452Z,94573.40
2018-03-19T19:35:44.863Z,94571.66
2018-03-19T19:38:13.260Z,94567.37
2018-03-19T19:40:41.723Z,94568.08
2018-03-19T19:43:10.163Z,94575.81
2018-03-19T19:45:38.545Z,94577.58
2018-03-19T19:48:07.023Z,94576.36
2018-03-19T19:50:36.489Z,94578.55
2018-03-19T19:53:05.030Z,94579.31
2018-03-19T19:55:33.434Z,94581.72
2018-03-19T19:58:02.736Z,94582.02
2018-03-19T20:00:31.151Z,94584.38
2018-03-19T20:02:59.585Z,94581.83
2018-03-19T20:05:28.032Z,94577.78
2018-03-19T20:07:56.449Z,94577.41
2018-03-19T20:10:24.853Z,94581.89
2018-03-19T20:12:53.348Z,94582.59
2018-03-19T20:15:21.743Z,94584.73
2018-03-19T20:17:50.208Z,94591.44
2018-03-19T20:20:18.644Z,94592.42
2018-03-19T20:22:47.061Z,94593.42
2018-03-19T20:25:15.492Z,94599.34
2018-03-19T20:27:43.971Z,94603.45
2018-03-19T20:30:12.462Z,94598.49
2018-03-19T20:32:40.876Z,94599.59
2018-03-19T20:35:09.312Z,94597.16
2018-03-19T20:37:37.748Z,94597.78
2018-03-19T20:40:06.227Z,94604.46
2018-03-19T20:42:34.732Z,94597.57
2018-03-19T20:45:03.118Z,94606.64
2018-03-19T20:47:31.569Z,94596.52
2018-03-19T20:49:59.964Z,94600.55
2018-03-19T20:52:28.390Z,94603.19
2018-03-19T20:54:56.951Z,94607.58
2018-03-19T20:57:25.329Z,94610.73
2018-03-19T20:59:53.728Z,94613.62
2018-03-19T21:02:22.172Z,94608.31
2018-03-19T21:04:50.560Z,94615.22
2018-03-19T21:07:19.086Z,94615.78
2018-03-19T21:09:47.529Z,94612.36
2018-03-19T21:12:16.383Z,94611.50
2018-03-19T21:14:44.785Z,94616.09
2018-03-19T21:17:13.185Z,94607.62
2018-03-19T21:19:41.588Z,94605.31
2018-03-19T21:22:09.994Z,94612.14
2018-03-19T21:24:38.856Z,94615.12
2018-03-19T21:27:07.272Z,94616.11
2018-03-19T21:29:35.633Z,94615.02
2018-03-19T21:32:04.042Z,94614.97
2018-03-19T21:34:32.404Z,94616.12
2018-03-19T21:37:00.837Z,94612.06
2018-03-19T21:39:29.317Z,94613.59
2018-03-19T21:41:57.724Z,94611.00
2018-03-19T21:44:26.133Z,94616.22
2018-03-19T21:46:54.603Z,94613.90
2018-03-19T21:49:23.079Z,94615.20
2018-03-19T21:51:52.280Z,94607.22
2018-03-19T21:54:20.668Z,94611.23
2018-03-19T21:56:49.110Z,94603.75
2018-03-19T21:59:17.721Z,94612.43
2018-03-19T22:01:46.131Z,94601.18
2018-03-19T22:04:14.543Z,94606.80
2018-03-19T22:06:42.959Z,94600.50
2018-03-19T22:09:15.593Z,94598.50
2018-03-19T22:11:44.068Z,94599.57
2018-03-19T22:14:12.496Z,94596.61
2018-03-19T22:16:40.871Z,94589.66
2018-03-19T22:19:09.412Z,94591.55
2018-03-19T22:21:37.843Z,94593.19
2018-03-19T22:24:06.305Z,94590.27
2018-03-19T22:26:34.852Z,94593.58
2018-03-19T22:29:03.316Z,94586.36
2018-03-19T22:31:31.701Z,94595.33
2018-03-19T22:34:00.086Z,94599.55
2018-03-19T22:36:28.503Z,94595.19
2018-03-19T22:38:56.887Z,94593.83
2018-03-19T22:41:25.380Z,94589.34
2018-03-19T22:43:53.832Z,94596.41
2018-03-19T22:46:22.201Z,94587.33
2018-03-19T22:48:50.598Z,94589.29
2018-03-19T22:51:19.004Z,94588.41
2018-03-19T22:53:47.515Z,94590.60
2018-03-19T22:56:15.913Z,94592.03
2018-03-19T22:58:44.324Z,94590.45
2018-03-19T23:01:12.814Z,94584.54
2018-03-19T23:03:41.205Z,94583.54
2018-03-19T23:06:09.668Z,94576.38
2018-03-19T23:08:38.072Z,94582.00
2018-03-19T23:11:06.468Z,94581.33
2018-03-19T23:13:34.903Z,94579.70
2018-03-19T23:16:03.306Z,94583.08
2018-03-19T23:18:31.746Z,94579.25
2018-03-19T23:21:00.144Z,94579.34
2018-03-19T23:23:28.607Z,94576.09
2018-03-19T23:25:57.061Z,94578.68
2018-03-19T23:28:25.457Z,94576.13
2018-03-19T23:30:53.932Z,94578.17
2018-03-19T23:33:22.356Z,94577.02
2018-03-19T23:35:50.932Z,94578.05
2018-03-19T23:38:19.368Z,94584.39
2018-03-19T23:40:47.751Z,94583.27
2018-03-19T23:43:16.163Z,94575.83
2018-03-19T23:45:44.593Z,94570.59
2018-03-19T23:48:13.079Z,94569.63
2018-03-19T23:50:41.471Z,94573.45
2018-03-19T23:53:09.908Z,94564.78
2018-03-19T23:55:38.324Z,94572.23
2018-03-19T23:58:06.784Z,94570.63
